• Join FlightAware (Why Join?)
  • Login
  • US Flag 
03:50AM EST


 

Airport Tracker/Info


-or-


 

Live Flight TrackerFlight Track Log ✈ N904DJ ✈ 08-May-2013 ✈ KFAR - KHZE

Flight Track Log - Related Links

Times and Time Zones

All times are in EDT time to prevent confusion due to time zone crossing. See the N904DJ flight status page for this flight to view local times or setup timezone preferences in your user account.

Time Position Orientation Groundspeed Altitude Reporting Facility
EDT Latitude Longitude Course Direction KTS MPH feet Rate Location/Type
06:25PM 46.9756 -96.8444 270° West 145 167 2,800  Level Minneapolis Center
06:26PM 46.9722 -96.9100 266° West 157 181 3,800 960 Climbing Minneapolis Center
06:27PM 46.9803 -96.9775 280° West 160 184 4,900 1,020 Climbing Minneapolis Center
06:29PM 46.9931 -97.0442 286° West 163 188 6,000 1,080 Climbing Minneapolis Center
06:30PM 46.9975 -97.1122 275° West 162 186 7,200 1,020 Climbing Minneapolis Center
06:31PM 46.9667 -97.3088 270° West  Level FlightAware Approximate
06:31PM 47.0011 -97.1808 274° West 162 186 8,200  Level Minneapolis Center
06:32PM 47.0072 -97.2481 278° West 158 182 9,200 960 Climbing Minneapolis Center
06:33PM 47.0131 -97.3103 278° West 160 184 10,200 900 Climbing Minneapolis Center
06:34PM 47.0189 -97.3778 277° West 161 185 11,100 840 Climbing Minneapolis Center
06:35PM 47.0242 -97.4450 277° West 161 185 12,000 420 Climbing Minneapolis Center
06:36PM 47.0308 -97.5233 277° West 184 212 12,000  Level Minneapolis Center
06:37PM 47.0378 -97.6114 277° West 204 235 12,000  Level Minneapolis Center
06:38PM 47.0453 -97.7028 277° West 216 249 12,000  Level Minneapolis Center
06:39PM 47.0536 -97.7944 278° West 217 250 12,000  Level Minneapolis Center
06:40PM 47.0661 -97.8653 285° West 216 249 12,000  Level Minneapolis Center
06:41PM 47.0914 -97.9636 291° West 216 249 12,100  Climbing Minneapolis Center
06:42PM 47.1003 -98.0500 279° West 214 246 12,100 -60 Level Minneapolis Center
06:43PM 47.0992 -98.1372 269° West 214 246 12,000  Descending Minneapolis Center
06:44PM 47.0944 -98.2258 266° West 216 249 12,100  Climbing Minneapolis Center
06:45PM 47.0919 -98.3136 268° West 216 249 12,000  Descending Minneapolis Center
06:46PM 47.0908 -98.4011 269° West 215 247 12,100  Climbing Minneapolis Center
06:47PM 47.0917 -98.5053 271° West 214 246 12,100  Level Minneapolis Center
06:48PM 47.0928 -98.5933 271° West 215 247 12,100  Level Minneapolis Center
06:49PM 47.0844 -98.6794 262° West 215 247 12,200  Climbing Minneapolis Center
06:50PM 47.0739 -98.7658 260° West 215 247 12,100  Descending Minneapolis Center
06:51PM 47.0675 -98.8536 264° West 216 249 12,200  Climbing Minneapolis Center
06:52PM 47.0561 -98.9386 259° West 215 247 12,100 -120 Descending Minneapolis Center
06:53PM 47.0578 -99.0247 272° West 214 246 12,000 -60 Descending Minneapolis Center
06:54PM 47.1086 -99.0964 316° Northwest 215 247 12,000  Level Minneapolis Center
06:55PM 47.1597 -99.1372 331° Northwest 209 241 12,000  Level Minneapolis Center
06:56PM 47.1900 -99.2083 302° West 213 245 12,000  Level Minneapolis Center
06:57PM 47.1869 -99.2922 267° West 212 244 12,000  Level Minneapolis Center
06:59PM 47.1667 -99.3764 251° West 216 249 12,000  Level Minneapolis Center
07:00PM 47.1492 -99.4786 256° West 217 250 12,000  Level Minneapolis Center
07:01PM 47.1711 -99.5633 291° West 219 252 12,000  Level Minneapolis Center
07:02PM 47.1939 -99.6419 293° West 215 247 12,000  Level Minneapolis Center
07:03PM 47.1981 -99.7328 274° West 219 252 12,000  Level Minneapolis Center
07:04PM 47.1931 -99.8211 265° West 220 253 12,100  Climbing Minneapolis Center
07:05PM 47.1992 -99.9264 275° West 217 250 12,100  Level Minneapolis Center
07:06PM 47.2114 -100.0131 282° West 215 247 12,100  Level Minneapolis Center
07:07PM 47.2144 -100.1017 273° West 216 249 12,100  Level Minneapolis Center
07:08PM 47.2192 -100.1894 275° West 217 250 12,100  Level Minneapolis Center
07:09PM 47.2225 -100.2767 273° West 217 250 12,100  Level Minneapolis Center
07:10PM 47.2292 -100.3647 276° West 215 247 12,100  Level Minneapolis Center
07:11PM 47.2336 -100.4667 274° West 213 245 12,100  Level Minneapolis Center
07:12PM 47.2381 -100.5550 274° West 215 247 12,100  Level Minneapolis Center
07:13PM 47.2439 -100.6406 276° West 213 245 12,100 -420 Level Minneapolis Center
07:14PM 47.2506 -100.7308 276° West 216 249 11,300 -840 Descending Minneapolis Center
07:15PM 47.2556 -100.8236 275° West 222 255 10,400 -960 Descending Minneapolis Center
07:16PM 47.2575 -100.9361 272° West 230 265 9,400 -960 Descending Minneapolis Center
07:17PM 47.2619 -101.0297 274° West 228 262 8,500 -900 Descending Minneapolis Center
07:18PM 47.2672 -101.1200 275° West 221 254 7,600 -960 Descending Minneapolis Center
07:19PM 47.2711 -101.2083 274° West 217 250 6,600 -1,020 Descending Minneapolis Center
07:21PM 47.2675 -101.3096 267° West  Level FlightAware Approximate
07:28PM 47.2833 -101.5667 270° West  Level FlightAware Approximate
07:29PM 47.2899 -101.5810 270° West  Level Estimated
07:30PM 47.2899 -101.5810 270° West  Level Estimated
07:31PM 47.2899 -101.5810 270° West  Level Estimated
07:32PM 47.2899 -101.5810 270° West  Level Estimated
07:33PM 47.2899 -101.5810 270° West  Level Estimated
07:34PM 47.2899 -101.5810 270° West  Level Estimated
07:35PM 47.2899 -101.5810 270° West  Level Estimated
07:36PM 47.2899 -101.5810 270° West  Level Estimated
07:37PM 47.2899 -101.5810 270° West  Level Estimated
07:38PM 47.2899 -101.5810 270° West  Level Estimated
07:39PM 47.2899 -101.5810 270° West  Level Estimated
07:40PM 47.2899 -101.5810 270° West  Level Estimated